createdAt,value
2022-12-24T00:01:01.592Z,8.91
2022-12-24T00:03:28.311Z,8.92
2022-12-24T00:05:54.896Z,8.89
2022-12-24T00:08:21.464Z,8.90
2022-12-24T00:10:52.163Z,8.91
2022-12-24T00:13:18.953Z,8.92
2022-12-24T00:15:45.488Z,8.96
2022-12-24T00:18:11.958Z,8.97
2022-12-24T00:20:38.405Z,8.94
2022-12-24T00:23:04.909Z,8.96
2022-12-24T00:25:31.377Z,8.97
2022-12-24T00:27:57.849Z,9.01
2022-12-24T00:30:24.358Z,8.97
2022-12-24T00:32:50.935Z,8.99
2022-12-24T00:35:17.389Z,9.01
2022-12-24T00:37:43.876Z,9.00
2022-12-24T00:40:10.661Z,8.99
2022-12-24T00:42:37.132Z,8.95
2022-12-24T00:45:03.881Z,8.97
2022-12-24T00:47:30.372Z,9.02
2022-12-24T00:49:56.947Z,8.87
2022-12-24T00:52:23.404Z,8.89
2022-12-24T00:54:49.863Z,8.87
2022-12-24T00:57:16.312Z,8.82
2022-12-24T00:59:42.968Z,8.97
2022-12-24T01:02:09.870Z,8.92
2022-12-24T01:04:54.872Z,8.81
2022-12-24T01:07:21.344Z,8.84
2022-12-24T01:09:47.792Z,8.79
2022-12-24T01:12:14.283Z,8.82
2022-12-24T01:14:40.804Z,8.88
2022-12-24T01:17:07.271Z,8.79
2022-12-24T01:19:33.861Z,8.74
2022-12-24T01:22:00.498Z,8.75
2022-12-24T01:24:26.955Z,8.65
2022-12-24T01:26:53.410Z,8.64
2022-12-24T01:29:19.876Z,8.67
2022-12-24T01:31:46.389Z,8.67
2022-12-24T01:34:12.942Z,8.60
2022-12-24T01:36:39.397Z,8.62
2022-12-24T01:39:05.890Z,8.63
2022-12-24T01:41:51.106Z,8.70
2022-12-24T01:44:36.231Z,8.61
2022-12-24T01:47:13.995Z,8.56
2022-12-24T01:53:21.199Z,8.49
2022-12-24T01:55:47.631Z,8.59
2022-12-24T01:58:14.614Z,8.58
2022-12-24T02:00:41.049Z,8.52
2022-12-24T02:03:07.648Z,8.41
2022-12-24T02:05:42.429Z,8.47
2022-12-24T02:08:09.103Z,8.42
2022-12-24T02:10:35.577Z,8.43
2022-12-24T02:13:02.001Z,8.43
2022-12-24T02:15:29.035Z,8.42
2022-12-24T02:18:18.174Z,8.44
2022-12-24T02:21:01.935Z,8.43
2022-12-24T02:23:38.731Z,8.41
2022-12-24T02:26:27.376Z,8.43
2022-12-24T02:29:17.903Z,8.37
2022-12-24T02:31:55.990Z,8.35
2022-12-24T02:34:32.851Z,8.42
2022-12-24T02:37:05.388Z,8.35
2022-12-24T02:39:37.484Z,8.35
2022-12-24T02:42:06.794Z,8.42
2022-12-24T02:45:05.637Z,8.43
2022-12-24T02:47:34.121Z,8.35
2022-12-24T02:50:01.459Z,8.38
2022-12-24T02:52:41.758Z,8.25
2022-12-24T02:55:12.546Z,8.29
2022-12-24T02:57:54.639Z,8.25
2022-12-24T03:00:21.302Z,8.32
2022-12-24T03:03:01.664Z,8.30
2022-12-24T03:05:31.235Z,8.31
2022-12-24T03:08:03.789Z,8.27
2022-12-24T03:10:42.347Z,8.23
2022-12-24T03:13:18.255Z,8.28
2022-12-24T03:15:44.692Z,8.30
2022-12-24T03:18:11.661Z,8.28
2022-12-24T03:20:43.290Z,8.28
2022-12-24T03:23:09.726Z,8.22
2022-12-24T03:25:41.373Z,8.29
2022-12-24T03:28:07.962Z,8.19
2022-12-24T03:30:34.553Z,8.24
2022-12-24T03:33:01.178Z,8.21
2022-12-24T03:35:27.619Z,8.18
2022-12-24T03:37:54.039Z,8.10
2022-12-24T03:40:20.483Z,8.07
2022-12-24T03:42:46.919Z,8.09
2022-12-24T03:45:13.351Z,8.15
2022-12-24T03:47:39.775Z,8.10
2022-12-24T03:50:06.858Z,8.16
2022-12-24T03:52:33.542Z,8.08
2022-12-24T03:54:59.966Z,8.07
2022-12-24T03:57:26.396Z,8.09
2022-12-24T03:59:52.891Z,8.06
2022-12-24T04:02:19.380Z,8.07
2022-12-24T04:04:45.920Z,8.04
2022-12-24T04:07:12.349Z,8.00
2022-12-24T04:09:39.150Z,8.03
2022-12-24T04:12:05.647Z,7.98
2022-12-24T04:14:32.085Z,8.04
2022-12-24T04:16:58.549Z,8.00
2022-12-24T04:19:25.023Z,7.97
2022-12-24T04:21:54.220Z,7.98
2022-12-24T04:24:20.658Z,7.95
2022-12-24T04:26:47.071Z,8.01
2022-12-24T04:29:13.512Z,7.96
2022-12-24T04:31:40.032Z,8.06
2022-12-24T04:34:06.521Z,7.99
2022-12-24T04:36:33.176Z,7.98
2022-12-24T04:38:59.607Z,7.90
2022-12-24T04:41:26.043Z,7.86
2022-12-24T04:43:53.245Z,7.91
2022-12-24T04:46:21.505Z,8.04
2022-12-24T04:48:49.021Z,7.97
2022-12-24T04:51:15.494Z,7.93
2022-12-24T04:53:41.962Z,8.00
2022-12-24T04:56:16.026Z,7.95
2022-12-24T04:58:42.444Z,7.97
2022-12-24T05:01:11.434Z,7.95
2022-12-24T05:03:38.185Z,7.93
2022-12-24T05:06:05.602Z,7.88
2022-12-24T05:08:32.043Z,7.85
2022-12-24T05:10:58.484Z,7.83
2022-12-24T05:13:30.006Z,7.79
2022-12-24T05:16:03.085Z,7.87
2022-12-24T05:18:29.509Z,7.84
2022-12-24T05:20:55.930Z,7.81
2022-12-24T05:23:42.589Z,7.75
2022-12-24T05:26:22.280Z,7.84
2022-12-24T05:28:52.694Z,7.79
2022-12-24T05:31:19.404Z,7.77
2022-12-24T05:33:45.845Z,7.76
2022-12-24T05:36:12.264Z,7.84
2022-12-24T05:38:38.913Z,7.73
2022-12-24T05:41:05.521Z,7.73
2022-12-24T05:43:31.999Z,7.68
2022-12-24T05:46:02.800Z,7.72
2022-12-24T05:48:29.535Z,7.68
2022-12-24T05:50:55.982Z,7.60
2022-12-24T05:53:22.472Z,7.47
2022-12-24T05:55:48.962Z,7.65
2022-12-24T05:58:15.508Z,7.48
2022-12-24T06:00:41.950Z,7.48
2022-12-24T06:03:08.401Z,7.49
2022-12-24T06:05:35.114Z,7.40
2022-12-24T06:08:01.600Z,7.38
2022-12-24T06:10:28.021Z,7.42
2022-12-24T06:12:55.490Z,7.42
2022-12-24T06:15:24.133Z,7.25
2022-12-24T06:17:50.843Z,7.23
2022-12-24T06:20:17.271Z,7.16
2022-12-24T06:22:43.716Z,7.06
2022-12-24T06:25:10.141Z,7.17
2022-12-24T06:27:36.555Z,7.24
2022-12-24T06:30:03.009Z,7.28
2022-12-24T06:32:29.453Z,7.38
2022-12-24T06:34:55.881Z,7.35
2022-12-24T06:37:22.321Z,7.32
2022-12-24T06:39:48.796Z,7.44
2022-12-24T06:42:15.209Z,7.33
2022-12-24T06:44:41.667Z,7.44
2022-12-24T06:47:08.124Z,7.42
2022-12-24T06:49:34.553Z,7.38
2022-12-24T06:52:01.005Z,7.33
2022-12-24T06:54:27.438Z,7.38
2022-12-24T06:56:55.305Z,7.39
2022-12-24T06:59:23.525Z,7.53
2022-12-24T07:01:50.037Z,7.39
2022-12-24T07:04:20.487Z,7.39
2022-12-24T07:06:47.278Z,7.43
2022-12-24T07:09:14.258Z,7.46
2022-12-24T07:11:40.691Z,7.71
2022-12-24T07:14:07.125Z,7.62
2022-12-24T07:16:33.925Z,7.56
2022-12-24T07:19:00.504Z,7.66
2022-12-24T07:21:27.184Z,7.63
2022-12-24T07:23:53.600Z,7.63
2022-12-24T07:26:20.102Z,7.66
2022-12-24T07:28:46.544Z,7.51
2022-12-24T07:31:13.140Z,7.51
2022-12-24T07:33:39.635Z,7.48
2022-12-24T07:36:07.059Z,7.48
2022-12-24T07:38:33.502Z,7.50
2022-12-24T07:40:59.926Z,7.46
2022-12-24T07:43:26.799Z,7.52
2022-12-24T07:45:57.557Z,7.46
2022-12-24T07:48:25.040Z,7.57
2022-12-24T07:50:51.685Z,7.51
2022-12-24T07:53:18.336Z,7.47
2022-12-24T07:55:44.875Z,7.45
2022-12-24T07:58:11.298Z,7.50
2022-12-24T08:00:37.713Z,7.55
2022-12-24T08:03:04.419Z,7.53
2022-12-24T08:05:34.904Z,7.57
2022-12-24T08:08:01.375Z,7.56
2022-12-24T08:10:27.812Z,7.50
2022-12-24T08:12:54.248Z,7.59
2022-12-24T08:15:20.672Z,7.61
2022-12-24T08:17:47.191Z,7.56
2022-12-24T08:20:13.647Z,7.55
2022-12-24T08:22:40.087Z,7.57
2022-12-24T08:25:07.021Z,7.67
2022-12-24T08:27:33.450Z,7.62
2022-12-24T08:29:59.981Z,7.65
2022-12-24T08:32:26.425Z,7.66
2022-12-24T08:34:52.846Z,7.65
2022-12-24T08:37:19.293Z,7.67
2022-12-24T08:39:45.720Z,7.74
2022-12-24T08:42:12.219Z,7.73
2022-12-24T08:44:38.717Z,7.73
2022-12-24T08:47:05.156Z,7.67
2022-12-24T08:49:31.613Z,7.65
2022-12-24T08:51:58.414Z,7.61
2022-12-24T08:54:25.401Z,7.63
2022-12-24T08:56:52.006Z,7.76
2022-12-24T08:59:18.546Z,7.90
2022-12-24T09:01:45.194Z,7.87
2022-12-24T09:04:11.881Z,7.71
2022-12-24T09:06:38.361Z,7.77
2022-12-24T09:09:04.871Z,7.70
2022-12-24T09:11:31.679Z,7.83
2022-12-24T09:13:58.156Z,7.72
2022-12-24T09:16:24.794Z,7.67
2022-12-24T09:18:51.279Z,7.62
2022-12-24T09:21:18.712Z,7.75
2022-12-24T09:23:47.513Z,7.74
2022-12-24T09:26:19.416Z,7.77
2022-12-24T09:28:45.943Z,7.74
2022-12-24T09:31:12.637Z,7.75
2022-12-24T09:33:39.731Z,7.85
2022-12-24T09:36:06.690Z,7.77
2022-12-24T09:38:33.401Z,7.77
2022-12-24T09:41:03.828Z,7.90
2022-12-24T09:43:35.137Z,7.82
2022-12-24T09:46:11.877Z,7.74
2022-12-24T09:48:40.934Z,7.79
2022-12-24T09:51:38.688Z,7.74
2022-12-24T09:54:31.546Z,7.94
2022-12-24T09:57:01.054Z,7.98
2022-12-24T09:59:35.596Z,7.93
2022-12-24T10:02:02.346Z,8.05
2022-12-24T10:04:30.328Z,8.04
2022-12-24T10:07:17.653Z,8.03
2022-12-24T10:10:15.395Z,8.13
2022-12-24T10:12:51.167Z,8.19
2022-12-24T10:15:30.437Z,8.15
2022-12-24T10:18:21.851Z,8.19
2022-12-24T10:21:12.644Z,8.25
2022-12-24T10:23:50.006Z,8.22
2022-12-24T10:26:25.546Z,8.26
2022-12-24T10:29:02.288Z,8.28
2022-12-24T10:31:30.213Z,8.19
2022-12-24T10:34:11.163Z,8.28
2022-12-24T10:36:37.616Z,8.17
2022-12-24T10:39:04.096Z,8.18
2022-12-24T10:41:30.565Z,8.24
2022-12-24T10:43:57.040Z,8.25
2022-12-24T10:46:37.865Z,8.25
2022-12-24T10:49:11.364Z,8.24
2022-12-24T10:51:41.926Z,8.38
2022-12-24T10:54:21.043Z,8.33
2022-12-24T10:56:57.042Z,8.36
2022-12-24T10:59:28.950Z,8.31
2022-12-24T11:01:57.308Z,8.42
2022-12-24T11:04:25.686Z,8.36
2022-12-24T11:06:56.303Z,8.37
2022-12-24T11:09:25.265Z,8.44
2022-12-24T11:11:51.796Z,8.41
2022-12-24T11:14:18.516Z,8.45
2022-12-24T11:16:54.865Z,8.51
2022-12-24T11:19:30.757Z,8.55
2022-12-24T11:22:05.584Z,8.48
2022-12-24T11:24:36.291Z,8.43
2022-12-24T11:27:30.762Z,8.48
2022-12-24T11:30:15.460Z,8.46
2022-12-24T11:32:46.525Z,8.45
2022-12-24T11:35:21.761Z,8.55
2022-12-24T11:38:08.056Z,8.51
2022-12-24T11:40:36.579Z,8.57
2022-12-24T11:43:04.075Z,8.53
2022-12-24T11:45:32.840Z,8.46
2022-12-24T11:47:59.736Z,8.41
2022-12-24T11:50:35.570Z,8.41
2022-12-24T11:53:12.861Z,8.43
2022-12-24T11:55:59.649Z,8.57
2022-12-24T11:58:43.985Z,8.51
2022-12-24T12:01:35.242Z,8.57
2022-12-24T12:04:04.799Z,8.62
2022-12-24T12:06:37.371Z,8.63
2022-12-24T12:09:11.697Z,8.70
2022-12-24T12:11:38.720Z,8.67
2022-12-24T12:14:05.199Z,8.67
2022-12-24T12:17:01.112Z,8.67
2022-12-24T12:19:37.345Z,8.64
2022-12-24T12:22:05.112Z,8.63
2022-12-24T12:24:40.315Z,8.85
2022-12-24T12:27:28.560Z,8.65
2022-12-24T12:30:09.664Z,8.65
2022-12-24T12:32:52.320Z,8.59
2022-12-24T12:35:29.530Z,8.75
2022-12-24T12:38:06.114Z,8.68
2022-12-24T12:40:55.717Z,8.51
2022-12-24T12:43:35.824Z,8.38
2022-12-24T12:46:25.594Z,8.22
2022-12-24T12:49:03.525Z,8.24
2022-12-24T12:51:42.238Z,8.35
2022-12-24T12:54:31.835Z,8.29
2022-12-24T12:57:01.712Z,8.38
2022-12-24T12:59:49.132Z,8.34
2022-12-24T13:02:50.219Z,8.21
2022-12-24T13:05:33.501Z,8.05
2022-12-24T13:08:07.500Z,8.13
2022-12-24T13:10:40.860Z,8.26
2022-12-24T13:13:25.633Z,8.30
2022-12-24T13:15:54.911Z,8.33
2022-12-24T13:19:01.306Z,8.40
2022-12-24T13:21:28.722Z,8.46
2022-12-24T13:24:12.554Z,8.63
2022-12-24T13:26:39.028Z,8.71
2022-12-24T13:29:31.807Z,8.67
2022-12-24T13:32:33.774Z,8.67
2022-12-24T13:35:00.109Z,8.58
2022-12-24T13:37:29.344Z,8.68
2022-12-24T13:40:08.365Z,8.63
2022-12-24T13:43:00.149Z,8.68
2022-12-24T13:45:29.805Z,8.57
2022-12-24T13:47:56.717Z,8.63
2022-12-24T13:50:47.149Z,8.63
2022-12-24T13:53:22.308Z,8.60
2022-12-24T13:55:53.729Z,8.53
2022-12-24T13:58:22.945Z,8.57
2022-12-24T14:00:57.497Z,8.74
2022-12-24T14:03:32.084Z,8.71
2022-12-24T14:06:06.991Z,8.65
2022-12-24T14:08:47.259Z,8.82
2022-12-24T14:11:15.735Z,8.79
2022-12-24T14:13:42.062Z,8.89
2022-12-24T14:16:17.803Z,8.86
2022-12-24T14:18:46.513Z,8.76
2022-12-24T14:21:18.145Z,8.81
2022-12-24T14:23:53.834Z,8.65
2022-12-24T14:26:22.316Z,8.70
2022-12-24T14:29:25.027Z,8.71
2022-12-24T14:31:56.002Z,8.63
2022-12-24T14:34:22.701Z,8.55
2022-12-24T14:36:50.105Z,8.45
2022-12-24T14:39:35.785Z,8.49
2022-12-24T14:43:10.128Z,8.45
2022-12-24T14:45:50.149Z,8.36
2022-12-24T14:48:41.288Z,8.43
2022-12-24T14:51:46.627Z,8.38
2022-12-24T14:54:39.490Z,8.23
2022-12-24T14:57:12.800Z,7.94
2022-12-24T14:59:52.373Z,7.54
2022-12-24T15:02:26.240Z,7.44
2022-12-24T15:05:26.228Z,7.31
2022-12-24T15:08:02.792Z,7.50
2022-12-24T15:10:29.175Z,7.45
2022-12-24T15:12:56.749Z,7.32
2022-12-24T15:15:24.605Z,7.15
2022-12-24T15:17:51.228Z,7.19
2022-12-24T15:20:18.885Z,7.22
2022-12-24T15:22:46.553Z,7.19
2022-12-24T15:25:26.625Z,7.28
2022-12-24T15:27:53.104Z,7.16
2022-12-24T15:30:21.822Z,6.99
2022-12-24T15:32:53.101Z,6.86
2022-12-24T15:35:51.945Z,6.91
2022-12-24T15:38:24.209Z,6.90
2022-12-24T15:40:50.678Z,6.95
2022-12-24T15:43:17.137Z,6.97
2022-12-24T15:45:45.482Z,6.99
2022-12-24T15:48:12.245Z,7.13
2022-12-24T15:50:44.169Z,7.07
2022-12-24T15:53:18.615Z,6.72
2022-12-24T15:56:00.386Z,6.68
2022-12-24T15:58:32.303Z,6.52
2022-12-24T16:01:26.358Z,6.56
2022-12-24T16:03:52.796Z,6.50
2022-12-24T16:06:20.090Z,6.42
2022-12-24T16:08:46.653Z,6.27
2022-12-24T16:11:21.217Z,6.33
2022-12-24T16:13:50.598Z,6.50
2022-12-24T16:16:21.865Z,6.48
2022-12-24T16:18:52.004Z,6.50
2022-12-24T16:21:26.386Z,6.61
2022-12-24T16:23:54.277Z,6.31
2022-12-24T16:26:21.285Z,6.31
2022-12-24T16:28:47.859Z,6.25
2022-12-24T16:31:18.178Z,6.14
2022-12-24T16:33:45.442Z,6.00
2022-12-24T16:36:11.970Z,6.32
2022-12-24T16:38:58.894Z,6.14
2022-12-24T16:41:25.378Z,5.85
2022-12-24T16:43:51.891Z,5.91
2022-12-24T16:46:18.387Z,6.00
2022-12-24T16:48:46.067Z,5.67
2022-12-24T16:51:12.559Z,5.53
2022-12-24T16:53:39.015Z,5.42
2022-12-24T16:56:05.592Z,5.51
2022-12-24T16:58:32.852Z,5.42
2022-12-24T17:00:59.796Z,5.32
2022-12-24T17:03:26.488Z,5.31
2022-12-24T17:05:53.072Z,5.32
2022-12-24T17:08:19.801Z,5.26
2022-12-24T17:10:52.399Z,5.24
2022-12-24T17:13:18.909Z,5.41
2022-12-24T17:15:45.467Z,5.19
2022-12-24T17:18:11.943Z,5.19
2022-12-24T17:20:38.452Z,5.19
2022-12-24T17:23:04.903Z,5.15
2022-12-24T17:25:31.373Z,4.93
2022-12-24T17:27:57.847Z,5.14
2022-12-24T17:30:24.357Z,5.28
2022-12-24T17:32:50.839Z,5.15
2022-12-24T17:35:17.423Z,5.15
2022-12-24T17:37:43.966Z,5.04
2022-12-24T17:40:11.531Z,4.83
2022-12-24T17:42:38.021Z,4.78
2022-12-24T17:45:04.851Z,4.87
2022-12-24T17:47:31.332Z,4.81
2022-12-24T17:49:57.928Z,4.81
2022-12-24T17:52:24.409Z,4.96
2022-12-24T17:54:50.891Z,4.69
2022-12-24T17:57:17.368Z,4.48
2022-12-24T17:59:43.826Z,4.66
2022-12-24T18:02:12.115Z,4.36
2022-12-24T18:04:38.623Z,4.78
2022-12-24T18:07:05.402Z,4.67
2022-12-24T18:09:31.883Z,4.60
2022-12-24T18:11:58.336Z,4.60
2022-12-24T18:14:24.801Z,4.75
2022-12-24T18:16:51.399Z,4.68
2022-12-24T18:19:17.991Z,4.71
2022-12-24T18:21:44.504Z,4.62
2022-12-24T18:24:11.977Z,4.47
2022-12-24T18:26:38.707Z,4.42
2022-12-24T18:29:05.700Z,4.33
2022-12-24T18:31:33.666Z,4.44
2022-12-24T18:34:01.094Z,4.35
2022-12-24T18:36:27.653Z,4.50
2022-12-24T18:38:54.154Z,4.47
2022-12-24T18:41:22.462Z,4.32
2022-12-24T18:43:48.933Z,4.27
2022-12-24T18:46:20.387Z,4.38
2022-12-24T18:48:47.111Z,4.48
2022-12-24T18:51:13.761Z,4.47
2022-12-24T18:53:40.326Z,4.39
2022-12-24T18:56:08.499Z,4.36
2022-12-24T18:58:35.107Z,4.18
2022-12-24T19:01:01.649Z,4.30
2022-12-24T19:03:28.165Z,4.10
2022-12-24T19:05:54.651Z,4.25
2022-12-24T19:08:55.603Z,3.95
2022-12-24T19:11:07.577Z,4.00
2022-12-24T19:13:34.040Z,3.96
2022-12-24T19:16:00.833Z,3.83
2022-12-24T19:18:27.669Z,4.07
2022-12-24T19:20:54.178Z,3.82
2022-12-24T19:23:20.712Z,3.90
2022-12-24T19:25:47.508Z,3.78
2022-12-24T19:28:13.991Z,3.78
2022-12-24T19:30:44.368Z,3.80
2022-12-24T19:33:10.848Z,3.74
2022-12-24T19:35:37.641Z,3.96
2022-12-24T19:38:04.383Z,3.90
2022-12-24T19:40:30.887Z,4.01
2022-12-24T19:42:58.097Z,3.91
2022-12-24T19:45:24.700Z,3.95
2022-12-24T19:47:51.299Z,3.76
2022-12-24T19:50:17.773Z,3.89
2022-12-24T19:52:44.237Z,4.15
2022-12-24T19:55:10.902Z,3.88
2022-12-24T19:57:37.610Z,3.76
2022-12-24T20:00:05.911Z,3.68
2022-12-24T20:02:33.934Z,3.69
2022-12-24T20:05:00.467Z,3.71
2022-12-24T20:07:26.940Z,3.67
2022-12-24T20:09:53.400Z,3.82
2022-12-24T20:12:19.892Z,3.85
2022-12-24T20:14:46.398Z,3.86
2022-12-24T20:17:14.731Z,3.74
2022-12-24T20:19:41.262Z,3.86
2022-12-24T20:22:07.776Z,3.64
2022-12-24T20:24:34.329Z,3.73
2022-12-24T20:27:00.822Z,3.90
2022-12-24T20:29:27.275Z,3.66
2022-12-24T20:31:53.836Z,3.67
2022-12-24T20:34:20.321Z,3.88
2022-12-24T20:36:46.797Z,3.77
2022-12-24T20:39:13.368Z,3.75
2022-12-24T20:41:39.852Z,3.68
2022-12-24T20:44:06.313Z,3.71
2022-12-24T20:46:32.869Z,3.74
2022-12-24T20:48:59.469Z,3.71
2022-12-24T20:51:26.666Z,3.67
2022-12-24T20:53:53.816Z,3.41
2022-12-24T20:56:20.354Z,3.71
2022-12-24T20:58:46.834Z,3.45
2022-12-24T21:01:16.596Z,3.44
2022-12-24T21:03:43.208Z,3.50
2022-12-24T21:06:10.242Z,3.50
2022-12-24T21:08:36.808Z,3.34
2022-12-24T21:11:21.567Z,3.61
2022-12-24T21:13:48.218Z,3.78
2022-12-24T21:16:14.829Z,3.83
2022-12-24T21:18:41.325Z,4.01
2022-12-24T21:21:08.078Z,3.86
2022-12-24T21:23:34.534Z,3.97
2022-12-24T21:26:02.031Z,4.06
2022-12-24T21:28:28.729Z,4.11
2022-12-24T21:30:55.270Z,4.06
2022-12-24T21:33:21.841Z,4.10
2022-12-24T21:35:48.349Z,4.06
2022-12-24T21:38:14.823Z,3.99
2022-12-24T21:40:41.298Z,4.14
2022-12-24T21:43:07.811Z,4.25
2022-12-24T21:45:34.341Z,4.13
2022-12-24T21:48:20.819Z,4.09
2022-12-24T21:50:56.726Z,4.13
2022-12-24T21:53:41.939Z,3.92
2022-12-24T21:56:10.238Z,3.66
2022-12-24T21:58:36.793Z,3.63
2022-12-24T22:01:10.359Z,3.85
2022-12-24T22:03:39.987Z,3.78
2022-12-24T22:06:06.765Z,3.61
2022-12-24T22:08:52.010Z,3.65
2022-12-24T22:11:37.065Z,3.69
2022-12-24T22:14:03.695Z,3.91
2022-12-24T22:16:30.404Z,3.90
2022-12-24T22:18:56.941Z,4.15
2022-12-24T22:21:23.390Z,4.28
2022-12-24T22:23:49.853Z,4.15
2022-12-24T22:26:17.680Z,4.38
2022-12-24T22:28:44.155Z,4.14
2022-12-24T22:31:18.150Z,4.18
2022-12-24T22:33:44.773Z,4.18
2022-12-24T22:36:11.397Z,4.17
2022-12-24T22:38:37.879Z,4.02
2022-12-24T22:41:16.182Z,3.79
2022-12-24T22:43:42.902Z,4.02
2022-12-24T22:46:10.807Z,4.09
2022-12-24T22:48:38.122Z,3.95
2022-12-24T22:51:08.603Z,3.75
2022-12-24T22:53:35.349Z,3.67
2022-12-24T22:56:02.138Z,3.66
2022-12-24T22:58:28.679Z,3.78
2022-12-24T23:00:55.144Z,3.90
2022-12-24T23:03:21.678Z,4.15
2022-12-24T23:06:01.572Z,4.35
2022-12-24T23:08:29.654Z,4.35
2022-12-24T23:11:10.553Z,4.10
2022-12-24T23:13:56.887Z,3.99
2022-12-24T23:16:23.510Z,3.80
2022-12-24T23:18:50.099Z,3.91
2022-12-24T23:21:16.567Z,3.67
2022-12-24T23:23:43.063Z,3.55
2022-12-24T23:26:11.637Z,3.58
2022-12-24T23:28:39.304Z,3.70
2022-12-24T23:31:07.006Z,3.63
2022-12-24T23:33:33.791Z,3.71
2022-12-24T23:36:00.444Z,3.53
2022-12-24T23:38:26.966Z,3.51
2022-12-24T23:41:00.351Z,3.77
2022-12-24T23:43:26.909Z,3.64
2022-12-24T23:45:53.501Z,3.74
2022-12-24T23:48:20.705Z,4.28
2022-12-24T23:50:47.270Z,4.27
2022-12-24T23:53:13.972Z,4.34
2022-12-24T23:55:40.487Z,4.52
2022-12-24T23:58:07.412Z,4.34
